createdAt,value
2018-03-14T00:00:19.201Z,6.30
2018-03-14T00:02:48.464Z,6.30
2018-03-14T00:05:19.077Z,6.50
2018-03-14T00:07:47.900Z,6.40
2018-03-14T00:10:17.514Z,6.50
2018-03-14T00:12:46.882Z,6.50
2018-03-14T00:15:15.719Z,6.50
2018-03-14T00:17:44.587Z,6.50
2018-03-14T00:20:14.192Z,6.40
2018-03-14T00:22:43.803Z,6.30
2018-03-14T00:25:13.405Z,6.20
2018-03-14T00:27:43.046Z,6.30
2018-03-14T00:30:11.884Z,6.30
2018-03-14T00:32:41.451Z,6.30
2018-03-14T00:35:11.094Z,6.30
2018-03-14T00:37:39.947Z,6.30
2018-03-14T00:40:08.798Z,6.30
2018-03-14T00:42:38.414Z,6.30
2018-03-14T00:45:08.013Z,6.30
2018-03-14T00:47:37.627Z,6.20
2018-03-14T00:50:07.230Z,6.20
2018-03-14T00:52:36.829Z,6.30
2018-03-14T00:55:06.449Z,6.10
2018-03-14T00:57:36.041Z,6.10
2018-03-14T01:00:05.788Z,6.10
2018-03-14T01:02:34.637Z,6.10
2018-03-14T01:05:03.484Z,6.20
2018-03-14T01:07:32.306Z,6.30
2018-03-14T01:10:01.161Z,6.30
2018-03-14T01:12:30.014Z,6.20
2018-03-14T01:14:58.829Z,6.30
2018-03-14T01:17:27.665Z,6.10
2018-03-14T01:19:56.603Z,6.10
2018-03-14T01:22:25.540Z,6.30
2018-03-14T01:24:54.394Z,6.40
2018-03-14T01:27:23.287Z,6.20
2018-03-14T01:29:52.129Z,6.30
2018-03-14T01:32:21.747Z,6.30
2018-03-14T01:34:51.382Z,6.20
2018-03-14T01:37:20.344Z,6.20
2018-03-14T01:39:49.157Z,6.20
2018-03-14T01:52:02.998Z,6.20
2018-03-14T01:54:32.617Z,5.70
2018-03-14T01:57:02.238Z,5.70
2018-03-14T01:59:31.086Z,5.70
2018-03-14T02:01:59.925Z,5.90
2018-03-14T02:04:28.773Z,6.00
2018-03-14T02:06:57.674Z,6.10
2018-03-14T02:09:27.306Z,6.10
2018-03-14T02:11:56.159Z,6.00
2018-03-14T02:14:25.057Z,6.00
2018-03-14T02:16:54.651Z,6.00
2018-03-14T02:19:23.490Z,5.90
2018-03-14T02:21:52.373Z,6.00
2018-03-14T02:24:21.230Z,6.00
2018-03-14T02:26:50.793Z,6.10
2018-03-14T02:29:20.477Z,6.10
2018-03-14T02:31:49.324Z,6.10
2018-03-14T02:34:18.155Z,6.20
2018-03-14T02:36:58.951Z,6.20
2018-03-14T02:39:27.810Z,6.10
2018-03-14T02:41:56.624Z,6.20
2018-03-14T02:44:25.479Z,6.20
2018-03-14T02:46:54.298Z,6.30
2018-03-14T02:49:23.920Z,6.10
2018-03-14T02:51:52.753Z,6.10
2018-03-14T02:54:21.596Z,6.10
2018-03-14T02:56:50.414Z,6.20
2018-03-14T02:59:19.494Z,6.20
2018-03-14T03:01:48.341Z,6.20
2018-03-14T03:04:17.958Z,6.10
2018-03-14T03:06:50.424Z,6.00
2018-03-14T03:09:20.068Z,6.00
2018-03-14T03:11:48.957Z,5.90
2018-03-14T03:14:17.785Z,6.00
2018-03-14T03:16:46.625Z,6.10
2018-03-14T03:19:16.233Z,6.20
2018-03-14T03:21:45.838Z,6.30
2018-03-14T03:24:14.698Z,6.30
2018-03-14T03:26:44.310Z,6.40
2018-03-14T03:29:13.919Z,6.40
2018-03-14T03:31:43.530Z,6.50
2018-03-14T03:34:13.137Z,6.40
2018-03-14T03:36:44.165Z,6.40
2018-03-14T03:39:12.985Z,6.40
2018-03-14T03:41:41.834Z,6.40
2018-03-14T03:44:10.666Z,6.50
2018-03-14T03:46:39.534Z,6.40
2018-03-14T03:49:08.378Z,6.40
2018-03-14T03:51:37.218Z,6.30
2018-03-14T03:54:06.060Z,6.40
2018-03-14T03:56:34.994Z,6.40
2018-03-14T03:59:03.837Z,6.40
2018-03-14T04:01:32.674Z,6.30
2018-03-14T04:04:01.528Z,6.30
2018-03-14T04:06:30.447Z,6.30
2018-03-14T04:08:59.270Z,6.40
2018-03-14T04:11:28.130Z,6.40
2018-03-14T04:13:56.988Z,6.30
2018-03-14T04:16:26.602Z,6.30
2018-03-14T04:18:56.230Z,6.30
2018-03-14T04:21:25.050Z,6.30
2018-03-14T04:23:53.953Z,6.20
2018-03-14T04:26:22.784Z,6.20
2018-03-14T04:28:52.397Z,6.20
2018-03-14T04:31:21.990Z,6.20
2018-03-14T04:33:51.599Z,6.30
2018-03-14T04:36:21.210Z,6.30
2018-03-14T04:38:50.814Z,6.20
2018-03-14T04:41:20.410Z,6.30
2018-03-14T04:43:50.057Z,6.40
2018-03-14T04:46:18.897Z,6.30
2018-03-14T04:48:47.875Z,6.50
2018-03-14T04:51:16.741Z,6.60
2018-03-14T04:53:45.586Z,6.60
2018-03-14T04:56:14.423Z,6.70
2018-03-14T04:58:43.290Z,6.70
2018-03-14T05:01:12.897Z,6.60
2018-03-14T05:03:42.486Z,6.60
2018-03-14T05:06:11.323Z,6.50
2018-03-14T05:08:40.173Z,6.50
2018-03-14T05:11:09.790Z,6.60
2018-03-14T05:13:39.432Z,6.70
2018-03-14T05:16:09.858Z,6.60
2018-03-14T05:18:39.809Z,6.80
2018-03-14T05:21:08.747Z,6.80
2018-03-14T05:23:39.589Z,6.90
2018-03-14T05:26:08.430Z,6.80
2018-03-14T05:28:40.700Z,6.80
2018-03-14T05:31:10.779Z,6.80
2018-03-14T05:33:39.658Z,6.70
2018-03-14T05:36:08.503Z,6.70
2018-03-14T05:38:37.348Z,6.60
2018-03-14T05:41:06.189Z,6.70
2018-03-14T05:43:35.797Z,6.70
2018-03-14T05:46:05.416Z,6.80
2018-03-14T05:48:34.786Z,6.70
2018-03-14T05:51:04.386Z,6.70
2018-03-14T05:53:33.232Z,6.60
2018-03-14T05:56:02.061Z,6.70
2018-03-14T05:58:31.249Z,6.70
2018-03-14T06:01:00.642Z,6.70
2018-03-14T06:03:29.934Z,6.70
2018-03-14T06:05:58.751Z,6.70
2018-03-14T06:08:27.608Z,6.60
2018-03-14T06:10:57.202Z,6.60
2018-03-14T06:13:26.061Z,6.60
2018-03-14T06:15:54.930Z,6.50
2018-03-14T06:18:23.817Z,6.50
2018-03-14T06:20:52.715Z,6.40
2018-03-14T06:23:22.199Z,6.50
2018-03-14T06:25:51.803Z,6.60
2018-03-14T06:28:21.425Z,6.60
2018-03-14T06:30:50.577Z,6.50
2018-03-14T06:33:19.414Z,6.60
2018-03-14T06:35:48.272Z,6.70
2018-03-14T06:38:18.502Z,6.80
2018-03-14T06:40:48.107Z,6.80
2018-03-14T06:43:17.709Z,6.80
2018-03-14T06:45:47.342Z,6.80
2018-03-14T06:48:16.204Z,6.80
2018-03-14T06:50:45.038Z,6.80
2018-03-14T06:53:13.895Z,6.80
2018-03-14T06:55:43.508Z,6.90
2018-03-14T07:01:40.222Z,6.90
2018-03-14T07:04:21.009Z,6.90
2018-03-14T07:06:50.466Z,6.90
2018-03-14T07:09:19.330Z,6.80
2018-03-14T07:11:48.973Z,6.90
2018-03-14T07:14:17.814Z,6.90
2018-03-14T07:16:46.662Z,6.90
2018-03-14T07:19:15.529Z,6.90
2018-03-14T07:21:45.146Z,6.80
2018-03-14T07:24:14.045Z,6.80
2018-03-14T07:26:42.883Z,6.80
2018-03-14T07:29:11.712Z,6.80
2018-03-14T07:31:40.578Z,6.80
2018-03-14T07:34:09.413Z,6.90
2018-03-14T07:36:38.250Z,6.90
2018-03-14T07:39:07.833Z,7.00
2018-03-14T07:41:36.695Z,6.90
2018-03-14T07:44:05.533Z,7.10
2018-03-14T07:46:35.141Z,7.20
2018-03-14T07:49:03.984Z,7.20
2018-03-14T07:51:33.618Z,7.10
2018-03-14T07:54:02.470Z,7.10
2018-03-14T07:56:32.086Z,7.20
2018-03-14T07:59:01.730Z,7.20
2018-03-14T08:01:30.581Z,7.20
2018-03-14T08:04:00.459Z,7.20
2018-03-14T08:06:29.295Z,7.10
2018-03-14T08:08:58.844Z,7.30
2018-03-14T08:11:27.811Z,7.30
2018-03-14T08:13:57.020Z,7.40
2018-03-14T08:16:26.595Z,7.50
2018-03-14T08:18:56.390Z,7.50
2018-03-14T08:21:25.213Z,7.40
2018-03-14T08:23:54.065Z,7.70
2018-03-14T08:26:23.705Z,7.80
2018-03-14T08:28:52.570Z,7.70
2018-03-14T08:31:22.819Z,7.70
2018-03-14T08:33:51.693Z,7.60
2018-03-14T08:36:20.523Z,7.70
2018-03-14T08:38:49.379Z,7.80
2018-03-14T08:41:18.194Z,8.00
2018-03-14T08:43:47.087Z,8.10
2018-03-14T08:46:15.932Z,8.20
2018-03-14T08:48:45.562Z,8.40
2018-03-14T08:51:15.194Z,8.30
2018-03-14T08:53:44.054Z,8.50
2018-03-14T08:56:13.500Z,8.60
2018-03-14T08:58:42.354Z,8.60
2018-03-14T09:01:11.211Z,8.60
2018-03-14T09:03:41.334Z,8.70
2018-03-14T09:06:10.925Z,8.60
2018-03-14T09:08:40.306Z,8.50
2018-03-14T09:11:10.712Z,8.70
2018-03-14T09:13:40.335Z,8.70
2018-03-14T09:16:09.188Z,9.00
2018-03-14T09:18:38.028Z,9.20
2018-03-14T09:21:07.777Z,9.50
2018-03-14T09:23:36.591Z,9.40
2018-03-14T09:26:05.465Z,9.50
2018-03-14T09:28:34.570Z,9.40
2018-03-14T09:31:03.389Z,9.40
2018-03-14T09:33:32.234Z,9.50
2018-03-14T09:36:01.698Z,9.60
2018-03-14T09:38:31.311Z,10.10
2018-03-14T09:41:00.922Z,10.20
2018-03-14T09:43:30.570Z,10.30
2018-03-14T09:46:00.176Z,10.30
2018-03-14T09:48:29.638Z,10.40
2018-03-14T09:50:58.798Z,10.50
2018-03-14T09:53:28.590Z,10.50
2018-03-14T09:55:58.485Z,10.40
2018-03-14T09:58:27.363Z,10.20
2018-03-14T10:00:57.003Z,9.80
2018-03-14T10:03:25.865Z,9.70
2018-03-14T10:05:55.459Z,9.60
2018-03-14T10:08:25.162Z,9.60
2018-03-14T10:10:53.991Z,9.50
2018-03-14T10:13:22.829Z,9.40
2018-03-14T10:15:52.496Z,9.40
2018-03-14T10:18:22.103Z,9.30
2018-03-14T10:20:50.909Z,9.30
2018-03-14T10:23:19.779Z,9.40
2018-03-14T10:25:48.693Z,9.40
2018-03-14T10:28:17.422Z,9.50
2018-03-14T10:30:47.034Z,9.50
2018-03-14T10:33:16.603Z,9.50
2018-03-14T10:35:45.470Z,9.50
2018-03-14T10:38:14.341Z,9.60
2018-03-14T10:40:44.128Z,9.60
2018-03-14T10:43:13.718Z,9.90
2018-03-14T10:45:42.559Z,9.90
2018-03-14T10:48:11.437Z,10.20
2018-03-14T10:50:41.363Z,10.80
2018-03-14T10:53:11.007Z,11.30
2018-03-14T10:55:40.646Z,11.50
2018-03-14T10:58:09.495Z,11.50
2018-03-14T11:00:44.116Z,11.50
2018-03-14T11:03:17.920Z,11.30
2018-03-14T11:05:46.787Z,11.30
2018-03-14T11:08:16.386Z,11.30
2018-03-14T11:10:45.997Z,11.20
2018-03-14T11:13:15.611Z,10.80
2018-03-14T11:15:45.216Z,10.70
2018-03-14T11:18:15.055Z,10.80
2018-03-14T11:20:43.889Z,10.80
2018-03-14T11:23:12.734Z,11.80
2018-03-14T11:25:41.585Z,12.80
2018-03-14T11:28:11.233Z,13.30
2018-03-14T11:30:40.083Z,13.20
2018-03-14T11:33:09.745Z,13.60
2018-03-14T11:35:39.082Z,13.60
2018-03-14T11:38:08.714Z,13.20
2018-03-14T11:40:37.543Z,13.20
2018-03-14T11:43:06.460Z,12.80
2018-03-14T11:45:35.278Z,12.70
2018-03-14T11:48:04.913Z,12.30
2018-03-14T11:50:33.765Z,12.20
2018-03-14T11:53:03.830Z,12.30
2018-03-14T11:55:33.454Z,11.80
2018-03-14T11:58:02.323Z,11.80
2018-03-14T12:00:31.207Z,12.20
2018-03-14T12:03:00.046Z,13.60
2018-03-14T12:05:28.900Z,15.50
2018-03-14T12:07:58.532Z,17.90
2018-03-14T12:10:28.148Z,17.60
2018-03-14T12:12:57.330Z,17.50
2018-03-14T12:15:26.216Z,17.70
2018-03-14T12:17:56.153Z,19.50
2018-03-14T12:20:24.994Z,19.40
2018-03-14T12:22:53.869Z,20.60
2018-03-14T12:25:22.690Z,21.30
2018-03-14T12:27:52.323Z,19.20
2018-03-14T12:30:21.194Z,19.20
2018-03-14T12:32:50.821Z,17.20
2018-03-14T12:35:19.690Z,17.10
2018-03-14T12:37:49.323Z,15.40
2018-03-14T12:40:18.191Z,15.30
2018-03-14T12:42:47.800Z,14.00
2018-03-14T12:45:16.668Z,13.90
2018-03-14T12:47:45.522Z,13.50
2018-03-14T12:50:14.399Z,13.50
2018-03-14T12:52:43.283Z,13.60
2018-03-14T12:55:12.166Z,13.70
2018-03-14T12:57:41.781Z,14.00
2018-03-14T13:00:10.655Z,13.90
2018-03-14T13:02:39.501Z,14.00
2018-03-14T13:05:08.378Z,14.00
2018-03-14T13:07:37.230Z,14.00
2018-03-14T13:10:06.852Z,13.70
2018-03-14T13:12:36.480Z,13.60
2018-03-14T13:15:05.326Z,13.50
2018-03-14T13:17:34.758Z,13.30
2018-03-14T13:20:04.353Z,13.30
2018-03-14T13:22:33.960Z,13.20
2018-03-14T13:25:03.578Z,13.20
2018-03-14T13:27:32.442Z,13.10
2018-03-14T13:30:02.043Z,13.20
2018-03-14T13:32:30.903Z,13.10
2018-03-14T13:34:59.758Z,13.30
2018-03-14T13:37:29.078Z,13.30
2018-03-14T13:39:58.049Z,13.20
2018-03-14T13:42:27.676Z,13.10
2018-03-14T13:44:56.537Z,13.00
2018-03-14T13:47:26.149Z,13.10
2018-03-14T13:49:55.746Z,13.20
2018-03-14T13:52:25.405Z,13.20
2018-03-14T13:54:55.085Z,13.10
2018-03-14T13:57:24.201Z,13.10
2018-03-14T13:59:53.072Z,12.90
2018-03-14T14:02:22.709Z,12.80
2018-03-14T14:04:51.562Z,12.80
2018-03-14T14:07:20.406Z,12.70
2018-03-14T14:09:49.253Z,12.60
2018-03-14T14:12:18.086Z,12.50
2018-03-14T14:14:46.951Z,12.60
2018-03-14T14:17:15.822Z,12.60
2018-03-14T14:19:45.422Z,12.60
2018-03-14T14:22:14.263Z,12.60
2018-03-14T14:24:43.126Z,12.70
2018-03-14T14:27:12.053Z,12.70
2018-03-14T14:29:40.837Z,12.60
2018-03-14T14:32:10.443Z,12.40
2018-03-14T14:34:39.315Z,12.30
2018-03-14T14:37:08.166Z,12.10
2018-03-14T14:39:37.977Z,12.10
2018-03-14T14:42:06.818Z,12.20
2018-03-14T14:44:37.213Z,12.20
2018-03-14T14:47:06.060Z,12.20
2018-03-14T14:49:35.695Z,12.00
2018-03-14T14:52:04.530Z,11.90
2018-03-14T14:54:34.147Z,12.10
2018-03-14T14:57:03.043Z,12.10
2018-03-14T14:59:31.842Z,12.20
2018-03-14T15:02:01.477Z,12.30
2018-03-14T15:04:30.334Z,12.20
2018-03-14T15:06:59.971Z,12.00
2018-03-14T15:09:28.831Z,11.90
2018-03-14T15:11:58.443Z,11.80
2018-03-14T15:14:27.558Z,11.80
2018-03-14T15:16:57.142Z,11.90
2018-03-14T15:19:26.774Z,11.90
2018-03-14T15:21:55.695Z,11.90
2018-03-14T15:24:24.531Z,12.00
2018-03-14T15:26:54.144Z,12.10
2018-03-14T15:29:23.750Z,12.00
2018-03-14T15:31:53.495Z,11.90
2018-03-14T15:34:23.029Z,11.90
2018-03-14T15:36:51.924Z,11.80
2018-03-14T15:39:20.766Z,11.70
2018-03-14T15:41:49.664Z,11.70
2018-03-14T15:44:20.790Z,11.50
2018-03-14T15:46:49.693Z,11.50
2018-03-14T15:49:18.547Z,11.50
2018-03-14T15:51:47.401Z,11.50
2018-03-14T15:54:16.291Z,11.50
2018-03-14T15:56:45.910Z,11.40
2018-03-14T15:59:15.547Z,11.40
2018-03-14T16:01:44.393Z,11.40
2018-03-14T16:04:14.025Z,11.40
2018-03-14T16:06:42.882Z,11.40
2018-03-14T16:09:12.900Z,11.40
2018-03-14T16:11:41.698Z,11.30
2018-03-14T16:14:11.344Z,11.30
2018-03-14T16:16:40.190Z,11.30
2018-03-14T16:19:09.827Z,11.10
2018-03-14T16:21:38.666Z,11.10
2018-03-14T16:24:08.298Z,10.90
2018-03-14T16:26:37.912Z,10.80
2018-03-14T16:29:06.803Z,10.80
2018-03-14T16:31:36.390Z,10.80
2018-03-14T16:34:06.058Z,10.70
2018-03-14T16:36:34.919Z,10.70
2018-03-14T16:39:04.017Z,10.60
2018-03-14T16:41:32.855Z,10.50
2018-03-14T16:44:01.697Z,10.40
2018-03-14T16:46:30.573Z,10.40
2018-03-14T16:49:00.199Z,10.30
2018-03-14T16:51:29.100Z,10.30
2018-03-14T16:53:58.692Z,10.20
2018-03-14T16:56:27.555Z,10.20
2018-03-14T16:58:56.420Z,10.20
2018-03-14T17:01:26.033Z,10.00
2018-03-14T17:03:54.882Z,10.00
2018-03-14T17:06:23.788Z,10.00
2018-03-14T17:08:52.667Z,10.00
2018-03-14T17:11:21.523Z,10.00
2018-03-14T17:13:50.361Z,9.90
2018-03-14T17:16:20.012Z,9.80
2018-03-14T17:18:48.871Z,9.80
2018-03-14T17:21:18.489Z,9.60
2018-03-14T17:23:48.101Z,9.60
2018-03-14T17:26:16.952Z,9.60
2018-03-14T17:28:45.798Z,9.50
2018-03-14T17:31:14.660Z,9.50
2018-03-14T17:33:44.291Z,9.40
2018-03-14T17:36:13.139Z,9.40
2018-03-14T17:38:42.427Z,9.40
2018-03-14T17:41:11.304Z,9.40
2018-03-14T17:43:40.135Z,9.30
2018-03-14T17:46:09.433Z,9.30
2018-03-14T17:48:39.064Z,9.10
2018-03-14T17:51:07.971Z,9.10
2018-03-14T17:53:36.819Z,9.00
2018-03-14T17:56:05.651Z,9.00
2018-03-14T17:58:35.300Z,8.80
2018-03-14T18:01:04.146Z,8.70
2018-03-14T18:03:33.000Z,8.80
2018-03-14T18:06:01.831Z,8.70
2018-03-14T18:08:30.669Z,8.80
2018-03-14T18:10:59.509Z,8.70
2018-03-14T18:13:29.131Z,8.60
2018-03-14T18:15:58.743Z,8.50
2018-03-14T18:18:28.366Z,8.50
2018-03-14T18:20:57.262Z,8.40
2018-03-14T18:23:26.118Z,8.50
2018-03-14T18:25:55.728Z,8.40
2018-03-14T18:28:25.381Z,8.30
2018-03-14T18:30:54.229Z,8.30
2018-03-14T18:33:23.859Z,8.20
2018-03-14T18:35:53.465Z,8.10
2018-03-14T18:38:22.333Z,8.10
2018-03-14T18:40:51.971Z,8.10
2018-03-14T18:43:20.862Z,8.10
2018-03-14T18:45:49.708Z,8.20
2018-03-14T18:48:18.561Z,8.20
2018-03-14T18:50:47.413Z,8.10
2018-03-14T18:53:16.361Z,8.00
2018-03-14T18:55:45.250Z,8.00
2018-03-14T18:58:14.094Z,7.90
2018-03-14T19:00:44.155Z,7.90
2018-03-14T19:03:12.988Z,7.80
2018-03-14T19:05:41.837Z,7.80
2018-03-14T19:08:10.682Z,7.80
2018-03-14T19:10:40.308Z,7.60
2018-03-14T19:13:09.911Z,7.60
2018-03-14T19:15:39.533Z,7.60
2018-03-14T19:18:09.145Z,7.60
2018-03-14T19:20:38.314Z,7.50
2018-03-14T19:23:07.956Z,7.60
2018-03-14T19:25:37.571Z,7.50
2018-03-14T19:28:06.551Z,7.40
2018-03-14T19:30:36.182Z,7.50
2018-03-14T19:33:05.057Z,7.40
2018-03-14T19:35:33.897Z,7.50
2018-03-14T19:38:03.519Z,7.40
2018-03-14T19:40:33.171Z,7.40
2018-03-14T19:43:02.036Z,7.30
2018-03-14T19:45:31.663Z,7.30
2018-03-14T19:48:00.507Z,7.20
2018-03-14T19:50:30.045Z,7.20
2018-03-14T19:52:59.451Z,7.30
2018-03-14T19:55:28.861Z,7.30
2018-03-14T19:57:59.159Z,7.30
2018-03-14T20:00:28.019Z,7.20
2018-03-14T20:02:56.863Z,7.20
2018-03-14T20:05:25.721Z,7.20
2018-03-14T20:07:54.603Z,7.10
2018-03-14T20:10:23.686Z,7.00
2018-03-14T20:12:53.296Z,7.10
2018-03-14T20:15:22.946Z,7.10
2018-03-14T20:17:51.791Z,7.00
2018-03-14T20:20:21.427Z,7.00
2018-03-14T20:22:50.267Z,7.00
2018-03-14T20:25:19.106Z,7.00
2018-03-14T20:27:48.933Z,7.00
2018-03-14T20:30:17.790Z,6.90
2018-03-14T20:32:47.402Z,6.90
2018-03-14T20:35:17.031Z,6.80
2018-03-14T20:37:45.897Z,6.70
2018-03-14T20:40:14.760Z,6.70
2018-03-14T20:42:43.598Z,6.70
2018-03-14T20:45:12.483Z,6.70
2018-03-14T20:47:41.668Z,6.70
2018-03-14T20:50:10.518Z,6.70
2018-03-14T20:52:39.379Z,6.60
2018-03-14T20:55:08.256Z,6.50
2018-03-14T20:57:37.088Z,6.50
2018-03-14T21:00:06.105Z,6.40
2018-03-14T21:02:37.217Z,6.40
2018-03-14T21:05:06.052Z,6.40
2018-03-14T21:07:34.931Z,6.30
2018-03-14T21:10:03.795Z,6.30
2018-03-14T21:12:32.650Z,6.20
2018-03-14T21:15:02.275Z,6.20
2018-03-14T21:17:31.155Z,6.10
2018-03-14T21:19:59.995Z,6.10
2018-03-14T21:22:29.689Z,6.00
2018-03-14T21:24:58.541Z,5.90
2018-03-14T21:27:28.166Z,5.90
2018-03-14T21:29:57.018Z,5.90
2018-03-14T21:32:26.634Z,5.90
2018-03-14T21:34:55.458Z,5.90
2018-03-14T21:37:24.372Z,5.90
2018-03-14T21:39:53.202Z,5.90
2018-03-14T21:42:22.036Z,5.90
2018-03-14T21:44:50.886Z,5.90
2018-03-14T21:47:19.751Z,5.90
2018-03-14T21:49:48.608Z,5.90
2018-03-14T21:52:17.451Z,5.90
2018-03-14T21:54:47.054Z,5.80
2018-03-14T21:57:19.465Z,5.70
2018-03-14T21:59:48.387Z,5.70
2018-03-14T22:02:17.247Z,5.70
2018-03-14T22:04:46.873Z,5.80
2018-03-14T22:07:16.211Z,5.80
2018-03-14T22:09:45.072Z,5.80
2018-03-14T22:12:13.914Z,5.80
2018-03-14T22:14:42.763Z,5.70
2018-03-14T22:17:11.606Z,5.70
2018-03-14T22:19:40.632Z,5.60
2018-03-14T22:22:09.481Z,5.60
2018-03-14T22:24:38.325Z,5.60
2018-03-14T22:27:07.197Z,5.60
2018-03-14T22:29:36.062Z,5.50
2018-03-14T22:32:05.677Z,5.40
2018-03-14T22:34:35.312Z,5.40
2018-03-14T22:37:04.225Z,5.30
2018-03-14T22:39:34.210Z,5.40
2018-03-14T22:42:03.066Z,5.30
2018-03-14T22:44:32.714Z,5.40
2018-03-14T22:47:01.615Z,5.30
2018-03-14T22:49:30.441Z,5.40
2018-03-14T22:51:59.614Z,5.40
2018-03-14T22:54:28.455Z,5.50
2018-03-14T22:56:58.091Z,5.40
2018-03-14T22:59:26.926Z,5.40
2018-03-14T23:01:56.787Z,5.40
2018-03-14T23:04:25.674Z,5.30
2018-03-14T23:06:54.534Z,5.30
2018-03-14T23:09:24.142Z,5.30
2018-03-14T23:11:53.750Z,5.40
2018-03-14T23:14:23.359Z,5.40
2018-03-14T23:16:52.994Z,5.30
2018-03-14T23:19:21.846Z,5.30
2018-03-14T23:21:50.682Z,5.30
2018-03-14T23:24:19.534Z,5.30
2018-03-14T23:26:49.171Z,5.30
2018-03-14T23:29:18.015Z,5.20
2018-03-14T23:31:46.875Z,5.20
2018-03-14T23:34:16.074Z,5.20
2018-03-14T23:36:44.928Z,5.30
2018-03-14T23:39:13.773Z,5.20
2018-03-14T23:41:42.610Z,5.20
2018-03-14T23:44:11.479Z,5.30
2018-03-14T23:46:40.318Z,5.20
2018-03-14T23:49:09.142Z,5.20
2018-03-14T23:51:38.786Z,5.20
2018-03-14T23:54:08.495Z,5.20
2018-03-14T23:56:37.358Z,5.10
2018-03-14T23:59:07.001Z,5.20
